createdAt,value
2018-06-25T00:01:31.015Z,13.80
2018-06-25T00:03:59.482Z,13.80
2018-06-25T00:06:28.023Z,13.80
2018-06-25T00:08:56.590Z,13.80
2018-06-25T00:11:25.070Z,13.80
2018-06-25T00:13:53.554Z,13.80
2018-06-25T00:16:22.267Z,13.80
2018-06-25T00:18:50.727Z,13.70
2018-06-25T00:21:19.218Z,13.70
2018-06-25T00:23:47.882Z,13.70
2018-06-25T00:26:16.363Z,13.70
2018-06-25T00:28:45.102Z,13.70
2018-06-25T00:31:13.679Z,13.70
2018-06-25T00:33:42.246Z,13.70
2018-06-25T00:36:10.723Z,13.60
2018-06-25T00:38:39.267Z,13.70
2018-06-25T00:41:07.775Z,13.60
2018-06-25T00:43:36.523Z,13.60
2018-06-25T00:46:05.111Z,13.70
2018-06-25T00:48:33.590Z,13.60
2018-06-25T00:51:02.076Z,13.60
2018-06-25T00:53:30.657Z,13.60
2018-06-25T00:55:59.290Z,13.60
2018-06-25T00:58:28.832Z,13.60
2018-06-25T01:00:57.311Z,13.50
2018-06-25T01:03:26.039Z,13.50
2018-06-25T01:05:54.697Z,13.50
2018-06-25T01:08:23.311Z,13.50
2018-06-25T01:10:51.810Z,13.50
2018-06-25T01:13:20.282Z,13.60
2018-06-25T01:15:48.795Z,13.60
2018-06-25T01:18:17.262Z,13.60
2018-06-25T01:20:45.877Z,13.60
2018-06-25T01:23:14.352Z,13.60
2018-06-25T01:25:42.816Z,13.60
2018-06-25T01:28:11.308Z,13.60
2018-06-25T01:30:39.887Z,13.70
2018-06-25T01:33:08.427Z,13.70
2018-06-25T01:35:36.952Z,13.70
2018-06-25T01:38:06.159Z,13.60
2018-06-25T01:40:34.614Z,13.60
2018-06-25T01:43:03.307Z,13.60
2018-06-25T01:45:31.791Z,13.60
2018-06-25T01:48:00.360Z,13.50
2018-06-25T01:50:28.890Z,13.60
2018-06-25T01:52:57.414Z,13.60
2018-06-25T01:55:25.982Z,13.60
2018-06-25T01:57:54.446Z,13.60
2018-06-25T02:00:22.994Z,13.60
2018-06-25T02:02:51.466Z,13.50
2018-06-25T02:05:20.148Z,13.50
2018-06-25T02:07:48.650Z,13.50
2018-06-25T02:10:17.315Z,13.50
2018-06-25T02:12:46.219Z,13.50
2018-06-25T02:15:14.723Z,13.50
2018-06-25T02:17:43.242Z,13.50
2018-06-25T02:20:11.822Z,13.50
2018-06-25T02:22:40.342Z,13.50
2018-06-25T02:25:08.931Z,13.60
2018-06-25T02:27:37.600Z,13.60
2018-06-25T02:30:06.086Z,13.60
2018-06-25T02:32:34.649Z,13.50
2018-06-25T02:35:03.119Z,13.60
2018-06-25T02:37:31.600Z,13.60
2018-06-25T02:40:00.092Z,13.60
2018-06-25T02:42:28.816Z,13.60
2018-06-25T02:44:57.643Z,13.60
2018-06-25T02:47:26.184Z,13.60
2018-06-25T02:49:54.647Z,13.50
2018-06-25T02:54:51.356Z,13.50
2018-06-25T02:57:19.939Z,13.50
2018-06-25T02:59:48.855Z,13.50
2018-06-25T03:02:17.447Z,13.60
2018-06-25T03:07:14.210Z,13.60
2018-06-25T03:09:42.899Z,13.60
2018-06-25T03:12:11.491Z,13.60
2018-06-25T03:14:40.306Z,13.50
2018-06-25T03:17:08.770Z,13.60
2018-06-25T03:19:37.242Z,13.50
2018-06-25T03:22:05.747Z,13.50
2018-06-25T03:24:34.221Z,13.50
2018-06-25T03:27:02.871Z,13.50
2018-06-25T03:29:31.352Z,13.50
2018-06-25T03:36:56.191Z,13.40
2018-06-25T03:39:24.759Z,13.40
2018-06-25T03:41:53.247Z,13.40
2018-06-25T03:44:21.786Z,13.40
2018-06-25T03:46:50.404Z,13.40
2018-06-25T03:49:18.955Z,13.40
2018-06-25T03:51:47.584Z,13.40
2018-06-25T03:54:16.103Z,13.40
2018-06-25T03:56:44.882Z,13.40
2018-06-25T03:59:13.361Z,13.40
2018-06-25T04:01:41.843Z,13.40
2018-06-25T04:04:10.351Z,13.50
2018-06-25T04:06:38.967Z,13.50
2018-06-25T04:09:09.883Z,13.60
2018-06-25T04:11:38.455Z,13.60
2018-06-25T04:14:07.039Z,13.60
2018-06-25T04:16:35.814Z,13.60
2018-06-25T04:19:05.318Z,13.60
2018-06-25T04:21:36.394Z,13.60
2018-06-25T04:24:05.090Z,13.60
2018-06-25T04:26:33.874Z,13.60
2018-06-25T04:29:03.034Z,13.60
2018-06-25T04:31:31.631Z,13.60
2018-06-25T04:34:00.406Z,13.50
2018-06-25T04:36:29.222Z,13.60
2018-06-25T04:38:57.900Z,13.60
2018-06-25T04:41:26.382Z,13.50
2018-06-25T04:43:54.854Z,13.50
2018-06-25T04:46:23.456Z,13.50
2018-06-25T04:48:52.036Z,13.50
2018-06-25T04:51:20.502Z,13.50
2018-06-25T04:53:49.159Z,13.50
2018-06-25T04:56:17.846Z,13.50
2018-06-25T04:58:46.336Z,13.50
2018-06-25T05:01:14.967Z,13.50
2018-06-25T05:03:43.491Z,13.50
2018-06-25T05:06:12.075Z,13.50
2018-06-25T05:08:40.615Z,13.50
2018-06-25T05:11:09.119Z,13.50
2018-06-25T05:13:37.718Z,13.60
2018-06-25T05:16:06.442Z,13.60
2018-06-25T05:18:34.922Z,13.60
2018-06-25T05:23:32.195Z,13.70
2018-06-25T05:26:00.982Z,13.70
2018-06-25T05:28:30.114Z,13.70
2018-06-25T05:30:58.718Z,13.80
2018-06-25T05:33:27.222Z,13.80
2018-06-25T05:35:55.762Z,13.80
2018-06-25T05:38:24.369Z,13.80
2018-06-25T05:40:52.833Z,13.80
2018-06-25T05:43:21.513Z,13.80
2018-06-25T05:45:50.039Z,13.80
2018-06-25T05:48:18.674Z,13.80
2018-06-25T05:50:47.132Z,13.80
2018-06-25T05:53:15.950Z,13.80
2018-06-25T05:55:44.450Z,13.90
2018-06-25T05:58:13.762Z,13.90
2018-06-25T06:00:42.343Z,13.90
2018-06-25T06:03:11.007Z,13.90
2018-06-25T06:05:39.573Z,13.90
2018-06-25T06:08:08.151Z,13.90
2018-06-25T06:10:36.646Z,13.90
2018-06-25T06:13:05.468Z,13.90
2018-06-25T06:15:34.367Z,13.90
2018-06-25T06:20:31.027Z,13.90
2018-06-25T06:22:59.694Z,13.90
2018-06-25T06:25:28.151Z,13.90
2018-06-25T06:27:56.651Z,14.00
2018-06-25T06:30:25.106Z,14.00
2018-06-25T06:32:53.640Z,14.10
2018-06-25T06:35:22.099Z,14.10
2018-06-25T06:37:50.811Z,14.10
2018-06-25T06:40:19.374Z,14.10
2018-06-25T06:42:47.872Z,14.10
2018-06-25T06:45:16.480Z,14.10
2018-06-25T06:47:44.964Z,14.00
2018-06-25T06:50:13.448Z,14.10
2018-06-25T06:52:41.993Z,14.10
2018-06-25T06:55:10.695Z,14.10
2018-06-25T06:57:39.304Z,14.20
2018-06-25T07:00:07.979Z,14.20
2018-06-25T07:02:36.510Z,14.20
2018-06-25T07:05:05.307Z,14.20
2018-06-25T07:07:33.832Z,14.30
2018-06-25T07:10:02.463Z,14.40
2018-06-25T07:12:30.935Z,14.40
2018-06-25T07:14:59.511Z,14.40
2018-06-25T07:17:28.031Z,14.30
2018-06-25T07:19:56.647Z,14.40
2018-06-25T07:22:25.218Z,14.40
2018-06-25T07:24:53.782Z,14.40
2018-06-25T07:27:22.263Z,14.40
2018-06-25T07:29:50.936Z,14.40
2018-06-25T07:32:19.346Z,14.40
2018-06-25T07:34:48.013Z,14.40
2018-06-25T07:37:16.635Z,14.40
2018-06-25T07:39:45.221Z,14.40
2018-06-25T07:42:13.734Z,14.40
2018-06-25T07:44:42.264Z,14.30
2018-06-25T07:47:10.990Z,14.30
2018-06-25T07:49:39.442Z,14.30
2018-06-25T07:52:08.034Z,14.40
2018-06-25T07:54:36.737Z,14.40
2018-06-25T07:57:05.549Z,14.40
2018-06-25T07:59:34.046Z,14.50
2018-06-25T08:02:02.729Z,14.60
2018-06-25T08:04:31.218Z,14.70
2018-06-25T08:09:28.229Z,14.80
2018-06-25T08:11:56.721Z,14.90
2018-06-25T08:14:25.210Z,15.00
2018-06-25T08:16:53.699Z,15.00
2018-06-25T08:19:22.234Z,15.00
2018-06-25T08:21:50.747Z,15.00
2018-06-25T08:26:47.423Z,15.10
2018-06-25T08:29:15.922Z,15.10
2018-06-25T08:31:44.508Z,15.10
2018-06-25T08:34:13.188Z,15.10
2018-06-25T08:36:41.989Z,15.20
2018-06-25T08:39:12.998Z,15.20
2018-06-25T08:41:42.074Z,15.20
2018-06-25T08:44:10.624Z,15.20
2018-06-25T08:46:39.667Z,15.20
2018-06-25T08:49:09.031Z,15.30
2018-06-25T08:51:37.879Z,15.40
2018-06-25T08:54:06.491Z,15.50
2018-06-25T08:59:03.715Z,15.60
2018-06-25T09:01:32.275Z,15.80
2018-06-25T09:04:00.806Z,16.10
2018-06-25T09:06:29.278Z,16.10
2018-06-25T09:08:57.931Z,16.00
2018-06-25T09:11:26.674Z,15.80
2018-06-25T09:13:55.647Z,15.70
2018-06-25T09:16:24.236Z,15.70
2018-06-25T09:18:52.833Z,15.70
2018-06-25T09:21:21.313Z,16.00
2018-06-25T09:23:49.809Z,16.10
2018-06-25T09:26:18.490Z,16.20
2018-06-25T09:28:47.063Z,16.20
2018-06-25T09:31:15.620Z,16.20
2018-06-25T09:33:44.147Z,16.20
2018-06-25T09:36:12.619Z,16.20
2018-06-25T09:38:41.207Z,16.20
2018-06-25T09:41:09.807Z,16.30
2018-06-25T09:43:38.242Z,16.30
2018-06-25T09:46:06.958Z,16.20
2018-06-25T09:48:35.611Z,16.20
2018-06-25T09:51:04.214Z,16.30
2018-06-25T09:53:32.783Z,16.30
2018-06-25T09:56:02.495Z,16.40
2018-06-25T09:58:31.242Z,16.50
2018-06-25T10:01:05.148Z,16.60
2018-06-25T10:03:33.838Z,16.70
2018-06-25T10:06:02.269Z,16.80
2018-06-25T10:08:30.841Z,16.80
2018-06-25T10:10:59.428Z,16.70
2018-06-25T10:13:28.075Z,16.60
2018-06-25T10:15:56.613Z,16.50
2018-06-25T10:18:25.302Z,16.40
2018-06-25T10:20:53.810Z,16.40
2018-06-25T10:23:22.434Z,16.40
2018-06-25T10:25:50.927Z,16.40
2018-06-25T10:28:19.528Z,16.40
2018-06-25T10:30:48.092Z,16.50
2018-06-25T10:33:16.558Z,16.60
2018-06-25T10:35:45.670Z,16.60
2018-06-25T10:38:14.223Z,16.70
2018-06-25T10:40:42.869Z,16.80
2018-06-25T10:43:11.346Z,16.80
2018-06-25T10:45:39.975Z,16.70
2018-06-25T10:48:08.639Z,16.70
2018-06-25T10:50:37.472Z,16.60
2018-06-25T10:53:05.976Z,16.50
2018-06-25T10:55:34.559Z,16.50
2018-06-25T10:58:03.138Z,16.50
2018-06-25T11:00:31.711Z,16.50
2018-06-25T11:03:00.243Z,16.40
2018-06-25T11:05:28.743Z,16.50
2018-06-25T11:07:57.249Z,16.60
2018-06-25T11:10:25.738Z,16.60
2018-06-25T11:12:54.302Z,16.70
2018-06-25T11:15:22.865Z,16.80
2018-06-25T11:17:51.447Z,17.00
2018-06-25T11:20:19.957Z,17.10
2018-06-25T11:25:16.790Z,17.10
2018-06-25T11:27:45.394Z,17.10
2018-06-25T11:30:13.865Z,17.20
2018-06-25T11:32:42.475Z,17.20
2018-06-25T11:35:11.158Z,17.30
2018-06-25T11:37:39.650Z,17.40
2018-06-25T11:40:08.207Z,17.50
2018-06-25T11:42:36.747Z,17.50
2018-06-25T11:45:05.369Z,17.40
2018-06-25T11:47:33.883Z,17.30
2018-06-25T11:50:02.432Z,17.20
2018-06-25T11:54:59.133Z,17.10
2018-06-25T11:57:27.882Z,17.10
2018-06-25T11:59:56.413Z,17.20
2018-06-25T12:02:25.016Z,17.20
2018-06-25T12:04:53.559Z,17.30
2018-06-25T12:07:22.163Z,17.40
2018-06-25T12:09:50.750Z,17.40
2018-06-25T12:12:19.545Z,17.50
2018-06-25T12:14:48.108Z,17.50
2018-06-25T12:17:16.710Z,17.50
2018-06-25T12:19:45.286Z,17.40
2018-06-25T12:22:13.807Z,17.40
2018-06-25T12:24:42.462Z,17.50
2018-06-25T12:27:10.906Z,17.50
2018-06-25T12:29:39.527Z,17.50
2018-06-25T12:32:08.126Z,17.60
2018-06-25T12:34:36.747Z,17.90
2018-06-25T12:37:05.395Z,18.10
2018-06-25T12:39:34.157Z,18.10
2018-06-25T12:42:02.777Z,18.10
2018-06-25T12:44:31.278Z,18.10
2018-06-25T12:46:59.810Z,18.00
2018-06-25T12:49:28.319Z,17.90
2018-06-25T12:51:56.863Z,17.80
2018-06-25T12:54:25.418Z,17.80
2018-06-25T12:56:54.174Z,17.80
2018-06-25T12:59:22.758Z,17.80
2018-06-25T13:01:51.325Z,17.80
2018-06-25T13:04:19.876Z,17.90
2018-06-25T13:06:48.402Z,17.90
2018-06-25T13:09:16.927Z,18.00
2018-06-25T13:11:45.499Z,18.00
2018-06-25T13:14:14.115Z,18.10
2018-06-25T13:16:42.651Z,18.10
2018-06-25T13:19:11.285Z,18.20
2018-06-25T13:21:39.772Z,18.30
2018-06-25T13:24:08.436Z,18.30
2018-06-25T13:26:37.011Z,18.20
2018-06-25T13:29:05.715Z,18.20
2018-06-25T13:31:34.246Z,18.20
2018-06-25T13:34:02.731Z,18.20
2018-06-25T13:36:31.313Z,18.20
2018-06-25T13:38:59.947Z,18.20
2018-06-25T13:41:28.639Z,18.30
2018-06-25T13:43:57.678Z,18.30
2018-06-25T13:46:26.276Z,18.30
2018-06-25T13:48:54.990Z,18.40
2018-06-25T13:51:23.595Z,18.50
2018-06-25T13:53:52.210Z,18.60
2018-06-25T13:56:20.739Z,18.70
2018-06-25T13:58:49.292Z,18.70
2018-06-25T14:01:18.150Z,18.70
2018-06-25T14:03:46.750Z,18.60
2018-06-25T14:06:15.247Z,18.60
2018-06-25T14:08:43.869Z,18.60
2018-06-25T14:11:12.385Z,18.60
2018-06-25T14:13:41.032Z,18.60
2018-06-25T14:16:09.630Z,18.60
2018-06-25T14:18:38.246Z,18.60
2018-06-25T14:21:06.942Z,18.60
2018-06-25T14:23:35.516Z,18.60
2018-06-25T14:26:05.097Z,18.60
2018-06-25T14:28:35.822Z,18.60
2018-06-25T14:31:09.744Z,18.60
2018-06-25T14:33:48.651Z,18.70
2018-06-25T14:36:17.360Z,18.70
2018-06-25T14:38:45.852Z,18.70
2018-06-25T14:41:14.347Z,18.70
2018-06-25T14:43:42.878Z,18.70
2018-06-25T14:46:11.498Z,18.70
2018-06-25T14:48:40.068Z,18.80
2018-06-25T14:51:08.543Z,18.80
2018-06-25T14:53:37.143Z,18.70
2018-06-25T14:56:05.894Z,18.80
2018-06-25T14:58:34.508Z,18.70
2018-06-25T15:01:03.046Z,18.80
2018-06-25T15:03:31.665Z,18.80
2018-06-25T15:06:00.163Z,18.80
2018-06-25T15:08:28.773Z,18.90
2018-06-25T15:10:57.339Z,18.80
2018-06-25T15:13:25.870Z,18.90
2018-06-25T15:15:54.523Z,18.90
2018-06-25T15:18:23.019Z,18.90
2018-06-25T15:20:51.664Z,18.80
2018-06-25T15:23:20.155Z,18.80
2018-06-25T15:25:48.895Z,18.80
2018-06-25T15:28:17.451Z,18.80
2018-06-25T15:30:45.996Z,18.80
2018-06-25T15:33:14.634Z,18.80
2018-06-25T15:35:43.226Z,18.80
2018-06-25T15:38:11.750Z,18.80
2018-06-25T15:40:40.470Z,18.80
2018-06-25T15:43:09.236Z,18.80
2018-06-25T15:45:37.935Z,18.80
2018-06-25T15:48:06.536Z,18.80
2018-06-25T15:50:35.253Z,18.80
2018-06-25T15:53:03.825Z,18.80
2018-06-25T15:55:32.531Z,18.80
2018-06-25T15:58:01.060Z,18.80
2018-06-25T16:00:29.572Z,18.80
2018-06-25T16:05:26.473Z,18.90
2018-06-25T16:07:55.004Z,18.90
2018-06-25T16:10:23.524Z,18.90
2018-06-25T16:12:52.279Z,18.90
2018-06-25T16:15:20.878Z,18.90
2018-06-25T16:17:49.439Z,19.00
2018-06-25T16:22:46.338Z,19.00
2018-06-25T16:25:15.032Z,19.00
2018-06-25T16:27:43.529Z,19.00
2018-06-25T16:30:12.157Z,19.00
2018-06-25T16:32:40.685Z,19.00
2018-06-25T16:35:09.327Z,19.00
2018-06-25T16:37:37.951Z,19.10
2018-06-25T16:40:06.563Z,19.10
2018-06-25T16:42:35.131Z,19.10
2018-06-25T16:45:03.940Z,19.10
2018-06-25T16:47:32.610Z,19.00
2018-06-25T16:50:01.191Z,19.00
2018-06-25T16:52:29.847Z,19.00
2018-06-25T16:54:58.589Z,19.00
2018-06-25T16:57:27.128Z,19.00
2018-06-25T16:59:55.991Z,19.00
2018-06-25T17:02:24.654Z,19.00
2018-06-25T17:04:53.365Z,19.00
2018-06-25T17:07:21.891Z,19.00
2018-06-25T17:09:50.667Z,19.00
2018-06-25T17:12:19.229Z,19.00
2018-06-25T17:14:47.873Z,18.90
2018-06-25T17:17:16.569Z,18.90
2018-06-25T17:19:45.211Z,18.90
2018-06-25T17:22:13.719Z,18.90
2018-06-25T17:24:42.452Z,18.90
2018-06-25T17:27:10.982Z,18.90
2018-06-25T17:29:39.597Z,18.90
2018-06-25T17:32:08.177Z,18.90
2018-06-25T17:34:36.892Z,18.90
2018-06-25T17:37:05.550Z,18.90
2018-06-25T17:39:34.082Z,18.90
2018-06-25T17:42:02.679Z,18.90
2018-06-25T17:44:31.319Z,18.90
2018-06-25T17:46:59.867Z,18.90
2018-06-25T17:49:28.478Z,18.90
2018-06-25T17:51:56.991Z,18.90
2018-06-25T17:54:25.551Z,18.90
2018-06-25T17:56:54.088Z,18.90
2018-06-25T17:59:22.846Z,18.80
2018-06-25T18:01:51.487Z,18.80
2018-06-25T18:04:20.063Z,18.80
2018-06-25T18:06:49.007Z,18.80
2018-06-25T18:09:17.559Z,18.80
2018-06-25T18:11:46.187Z,18.80
2018-06-25T18:16:42.982Z,18.70
2018-06-25T18:19:11.515Z,18.70
2018-06-25T18:24:08.340Z,18.70
2018-06-25T18:26:36.945Z,18.70
2018-06-25T18:29:05.533Z,18.60
2018-06-25T18:31:34.215Z,18.60
2018-06-25T18:34:03.008Z,18.60
2018-06-25T18:36:31.516Z,18.60
2018-06-25T18:39:00.179Z,18.60
2018-06-25T18:41:28.884Z,18.60
2018-06-25T18:43:57.464Z,18.50
2018-06-25T18:46:26.092Z,18.50
2018-06-25T18:48:54.747Z,18.50
2018-06-25T18:51:23.324Z,18.50
2018-06-25T18:53:52.069Z,18.50
2018-06-25T18:56:20.680Z,18.40
2018-06-25T18:58:49.212Z,18.40
2018-06-25T19:01:17.881Z,18.40
2018-06-25T19:03:46.484Z,18.40
2018-06-25T19:06:15.076Z,18.40
2018-06-25T19:08:43.783Z,18.40
2018-06-25T19:11:12.438Z,18.40
2018-06-25T19:13:41.028Z,18.40
2018-06-25T19:16:09.575Z,18.30
2018-06-25T19:18:38.259Z,18.40
2018-06-25T19:21:06.847Z,18.40
2018-06-25T19:23:35.640Z,18.30
2018-06-25T19:26:04.279Z,18.30
2018-06-25T19:28:32.860Z,18.30
2018-06-25T19:31:01.656Z,18.30
2018-06-25T19:33:30.289Z,18.30
2018-06-25T19:35:59.106Z,18.30
2018-06-25T19:38:28.057Z,18.30
2018-06-25T19:40:56.842Z,18.30
2018-06-25T19:43:25.643Z,18.30
2018-06-25T19:45:54.228Z,18.20
2018-06-25T19:48:22.814Z,18.30
2018-06-25T19:50:51.542Z,18.20
2018-06-25T19:53:20.411Z,18.20
2018-06-25T19:55:49.229Z,18.10
2018-06-25T19:58:18.126Z,18.10
2018-06-25T20:00:47.047Z,18.10
2018-06-25T20:03:15.688Z,18.00
2018-06-25T20:05:44.350Z,18.00
2018-06-25T20:08:13.060Z,17.90
2018-06-25T20:10:41.915Z,17.80
2018-06-25T20:13:10.580Z,17.80
2018-06-25T20:15:39.148Z,17.70
2018-06-25T20:18:07.876Z,17.60
2018-06-25T20:20:36.422Z,17.60
2018-06-25T20:23:05.066Z,17.60
2018-06-25T20:25:33.786Z,17.50
2018-06-25T20:28:02.351Z,17.40
2018-06-25T20:32:59.128Z,17.40
2018-06-25T20:37:56.207Z,17.30
2018-06-25T20:40:24.906Z,17.20
2018-06-25T20:42:53.426Z,17.20
2018-06-25T20:45:21.984Z,17.10
2018-06-25T20:47:50.907Z,17.10
2018-06-25T20:50:19.535Z,17.00
2018-06-25T20:52:48.071Z,17.00
2018-06-25T20:55:16.621Z,17.00
2018-06-25T20:57:45.317Z,16.90
2018-06-25T21:00:13.997Z,16.90
2018-06-25T21:02:42.682Z,16.80
2018-06-25T21:05:11.227Z,16.80
2018-06-25T21:07:39.778Z,16.80
2018-06-25T21:10:08.393Z,16.80
2018-06-25T21:12:36.876Z,16.70
2018-06-25T21:15:05.776Z,16.70
2018-06-25T21:17:34.605Z,16.70
2018-06-25T21:20:03.290Z,16.60
2018-06-25T21:22:31.820Z,16.50
2018-06-25T21:25:00.370Z,16.50
2018-06-25T21:27:29.046Z,16.50
2018-06-25T21:29:57.760Z,16.40
2018-06-25T21:32:26.318Z,16.40
2018-06-25T21:34:54.818Z,16.40
2018-06-25T21:37:23.347Z,16.30
2018-06-25T21:39:51.931Z,16.30
2018-06-25T21:42:21.359Z,16.40
2018-06-25T21:44:49.899Z,16.30
2018-06-25T21:47:18.659Z,16.30
2018-06-25T21:49:47.213Z,16.30
2018-06-25T21:52:15.814Z,16.20
2018-06-25T21:54:44.422Z,16.20
2018-06-25T21:57:12.950Z,16.20
2018-06-25T21:59:41.623Z,16.20
2018-06-25T22:02:10.525Z,16.10
2018-06-25T22:04:38.990Z,16.10
2018-06-25T22:07:07.608Z,16.10
2018-06-25T22:09:36.186Z,16.00
2018-06-25T22:12:04.813Z,16.00
2018-06-25T22:14:33.324Z,15.90
2018-06-25T22:17:02.040Z,15.90
2018-06-25T22:19:30.799Z,15.90
2018-06-25T22:21:59.446Z,15.90
2018-06-25T22:24:27.927Z,15.80
2018-06-25T22:26:56.522Z,15.70
2018-06-25T22:29:25.013Z,15.70
2018-06-25T22:31:53.873Z,15.80
2018-06-25T22:34:22.358Z,15.70
2018-06-25T22:36:50.854Z,15.70
2018-06-25T22:39:19.355Z,15.60
2018-06-25T22:41:47.867Z,15.60
2018-06-25T22:44:16.540Z,15.60
2018-06-25T22:46:44.990Z,15.60
2018-06-25T22:49:13.678Z,15.60
2018-06-25T22:51:42.182Z,15.50
2018-06-25T22:54:10.714Z,15.50
2018-06-25T22:56:39.183Z,15.50
2018-06-25T22:59:07.819Z,15.40
2018-06-25T23:01:36.438Z,15.40
2018-06-25T23:04:05.140Z,15.30
2018-06-25T23:06:33.719Z,15.30
2018-06-25T23:09:02.243Z,15.30
2018-06-25T23:11:30.767Z,15.20
2018-06-25T23:13:59.365Z,15.20
2018-06-25T23:16:27.939Z,15.20
2018-06-25T23:18:56.425Z,15.10
2018-06-25T23:21:24.995Z,15.10
2018-06-25T23:23:53.583Z,15.10
2018-06-25T23:26:22.086Z,15.00
2018-06-25T23:28:50.657Z,14.90
2018-06-25T23:31:19.193Z,14.90
2018-06-25T23:33:47.852Z,14.80
2018-06-25T23:36:16.439Z,14.90
2018-06-25T23:38:45.131Z,14.90
2018-06-25T23:41:13.598Z,14.90
2018-06-25T23:43:42.115Z,14.80
2018-06-25T23:46:10.586Z,14.70
2018-06-25T23:48:39.071Z,14.70
2018-06-25T23:51:07.738Z,14.70
2018-06-25T23:53:36.244Z,14.60
2018-06-25T23:56:04.903Z,14.60
2018-06-25T23:58:33.370Z,14.60
